Portada
METAR-TAF:

METAR-TAF

Aeroports :

Vientiane, Laos

latitud: 17-57N, longitud: 102-34E, altitud: 171 m

Observació

L'informe es va fer fa 12 minuts, a les 13:00 UTC
Vent 2 kt del Oest/Sud-Oest
Temperatura 30°C
Humitat 75%
Pressió 1003 hPa
Visibilitat: 4000 m
Núvols disperses a una alçada de 5000 ft
boirina

METAR: VLVT 291300Z 24002KT 4000 BR SCT050 30/25 Q1003 NOSIG

Hora: 20:12 (13:12 UTC)

Pronòstic

L'informe es va fer fa 2 hores i 12 minuts, a les 11:00 UTC
Pronòstic vàlid del 29 a les 12 UTC al 30 a les 12 UTC
Vent 6 kt del Oest
Visibilitat: 5000 m
Núvols disperses a una alçada de 1600 ft
Escasses núvols a una alçada de 2300 ft, Cumulonimbus.
Cel ennuvolat a una alçada de 5000 ft
tempesta

TAF: VLVT 291100Z 2912/3012 27006KT 5000 TS SCT016 FEW023CB BKN050

Observacions i pronòstics meteorològics de més de 4000 aeroports (METAR i TAF).

Les estacions disponibles són els punts grocs i vermells al mapa.

Posi el ratolí al punt desitjat per veure el nom de l'estació.

Feu clic per veure les observacions i els pronòstics meteorològics.

Per canviar el mapa: feu clic els botons verds amb una creu de color negre per apropar; al botó verd amb un guió per allunyar la imatge; o en les fletxes verdes per a mapes adjacents.


METAR-TAF: